Historyczne dane pomiarowe

Dodano dane terminowe – wersja testowa.

Dane z okresu 1951-2019

Wersja bazy: 1.34 [2019-03-16, lista zmian], aktualizacja planowana na 2019-04-15

Dane meteo z obszaru Polski uzyskane na podstawie danych udostępnionych przez Instytut Meteorologii i Gospodarki Wodnej – Państwowy Instytut Badawczy.

 

Wybierz Datę:    

       

TemperaturaWilgotnośćWiatrCiśnienieOpadyŚniegCzas trwania zjawisk
 Stacja t tx tn tng RH VA  wxwx mslp ppp RRR   cm mm wxwxwxwxwxwxwx
1994-08-14 15.3 20.5 12.2- 55.0- 6.3 2.7---- 0.0------------
1994-08-13 17.1 22.0 14.7- 74.5- 7.7 8.3---- 2.0------------
1994-08-12 16.8 21.2 14.6- 82.0- 7.7 4.3---- 23.0------------
1994-08-11 20.0 24.0 16.2- 74.8- 7.7 1.7---- 25.0------------
1994-08-10 20.0 27.9 11.2- 62.5- 5.3 1.0---- 20.6------------
1994-08-09 19.3 25.6 17.8- 78.3- 5.3 1.7---- 5.2------------
1994-08-08 22.3 28.1 18.2- 69.5- 7.0 2.0---- 12.1------------
1994-08-07 23.2 31.9 17.4- 66.5- 5.0 2.0---- 5.3------------
1994-08-06 25.3 33.5 14.3- 57.0- 1.3 3.3---- 0.0------------
1994-08-05 23.5 31.5 15.7- 62.5- 0.0 4.3---- 0.0------------
1994-08-04 21.2 28.9 14.6- 67.5- 1.3 2.0---- 0.0------------
1994-08-03 23.1 31.1 18.2- 63.0- 2.3 3.0---- 28.2------------
1994-08-02 24.8 32.4 19.1- 53.5- 2.0 0.7---- 0.0------------
1994-08-01 27.7 36.7 17.7- 46.3- 5.7 2.7---- 0.0------------
1994-07-31 26.6 35.5 16.9- 48.0- 0.0 2.7---- 0.0------------
1994-07-30 25.6 35.0 13.4- 47.3- 0.0 4.7---- 0.0------------
1994-07-29 25.5 34.0 14.2- 44.3- 0.0 3.7---- 0.0------------
1994-07-28 24.4 34.1 12.7- 48.0- 0.0 2.7---- 0.0------------
1994-07-27 24.5 33.5 14.2- 56.0- 2.0 1.3---- 0.0------------
1994-07-26 24.8 31.9 13.8- 50.8- 0.0 4.0---- 0.0------------
1994-07-25 22.5 32.5 12.2- 53.8- 0.0 4.0---- 0.0------------
1994-07-24 22.1 30.6 11.6- 50.5- 0.3 3.3---- 0.0------------
1994-07-23 21.9 29.4 10.8- 48.8- 1.7 3.3---- 0.0------------
1994-07-22 21.8 29.4 10.2- 48.5- 0.0 3.7---- 0.0------------
1994-07-21 20.2 27.2 8.8- 55.8- 0.0 4.0---- 0.0------------
1994-07-20 18.3 24.7 12.9- 51.0- 1.3 3.3---- 0.0------------
1994-07-19 19.5 24.8 14.6- 65.5- 6.7 2.7---- 0.0------------
1994-07-18 20.6 27.4 15.8- 66.3- 6.3 6.7---- 4.6------------
1994-07-17 20.6 29.4 15.2- 72.0- 5.7 3.0---- 4.0------------
1994-07-16 22.3 30.4 13.2- 69.5- 5.7 1.3---- 0.0------------
1994-07-15 22.2 28.4 14.6- 61.0- 5.3 4.0---- 0.0------------
1994-07-14 22.2 30.1 12.2- 56.5- 5.3 3.3---- 0.0------------
1994-07-13 21.8 27.5 12.7- 54.0- 5.3 5.0---- 0.0------------
1994-07-12 20.5 25.0 15.8- 64.0- 0.0 4.0---- 0.0------------
1994-07-11 19.1 26.5 11.2- 64.0- 6.3 4.3---- 0.0------------
1994-07-10 17.2 22.5 12.6- 67.0- 6.3 2.0---- 0.2------------
1994-07-09 15.2 18.8 13.2- 72.8- 7.7 4.7---- 12.0------------
1994-07-08 16.1 19.5 13.2- 71.8- 4.7 2.0---- 2.3------------
1994-07-07 18.2 26.5 10.6- 65.8- 7.0 1.7---- 4.9------------
1994-07-06 19.8 26.2 9.9- 51.8- 2.0 1.7---- 0.0------------
1994-07-05 20.5 26.7 14.6- 60.3- 7.3 4.0---- 0.0------------
1994-07-04 20.6 30.4 9.6- 51.0- 0.0 1.7---- 0.0------------
1994-07-03 19.6 27.4 10.2- 46.5- 0.0 4.0---- 0.0------------
1994-07-02 18.6 26.0 9.7- 61.3- 0.0 2.0---- 0.0------------
1994-07-01 20.8 25.5 15.2- 60.5- 2.0 5.0---- 0.0------------
1994-06-30 22.4 29.6 19.1- 82.5- 6.7 7.0---- 0.0------------
1994-06-29 25.7 32.9 16.7- 67.8- 4.3 4.7---- 0.0------------
1994-06-28 25.9 32.6 18.2- 74.5- 4.3 3.3---- 0.0------------
1994-06-27 24.6 31.4 12.2- 70.3- 0.0 0.0---- 0.0------------
1994-06-26 21.4 30.6 9.8- 60.8- 0.0 2.7---- 0.0------------
1994-06-25 16.1 22.6 4.3- 55.0- 0.0 3.3---- 0.0------------
1994-06-24 15.6 21.3 5.8- 56.5- 0.7 2.3---- 0.0------------
1994-06-23 18.7 24.5 11.2- 64.3- 4.7 9.0---- 0.0------------
1994-06-22 18.6 26.0 7.8- 69.8- 3.7 6.3---- 0.0------------
1994-06-21 15.3 23.0 6.7- 65.0- 4.3 1.7---- 0.0------------
1994-06-20 15.9 23.0 10.0- 71.0- 2.0 6.0---- 0.0------------
1994-06-19 18.8 24.5 12.4- 73.3- 3.3 5.7---- 0.0------------
1994-06-18 12.3 19.6 3.9- 84.0- 7.0 7.3---- 9.4------------
1994-06-17 11.5 15.6 8.4- 77.5- 7.3 3.0---- 0.0------------
1994-06-16 12.0 19.0 5.3- 74.3- 7.7 5.7---- 2.0------------
230.8 ms

 

Źródłem pochodzenia danych jest Instytut Meteorologii i Gospodarki Wodnej – Państwowy Instytut Badawczy. Dane Instytutu Meteorologii i Gospodarki Wodnej – Państwowego Instytutu Badawczego zostały przetworzone.

Dane źródłowe można odnaleźć na stronie https://dane.imgw.pl